createdAt,value
2022-08-20T00:01:38.940Z,94216.00
2022-08-20T00:04:08.913Z,94217.00
2022-08-20T00:06:35.888Z,94214.00
2022-08-20T00:09:05.062Z,94216.00
2022-08-20T00:11:33.663Z,94205.00
2022-08-20T00:14:05.053Z,94205.00
2022-08-20T00:16:35.165Z,94213.00
2022-08-20T00:19:05.782Z,94208.00
2022-08-20T00:21:37.703Z,94210.00
2022-08-20T00:24:05.542Z,94213.00
2022-08-20T00:26:37.969Z,94208.00
2022-08-20T00:29:20.467Z,94211.00
2022-08-20T00:31:50.681Z,94214.00
2022-08-20T00:34:17.926Z,94213.00
2022-08-20T00:36:44.976Z,94204.00
2022-08-20T00:39:14.379Z,94213.00
2022-08-20T00:41:41.404Z,94210.00
2022-08-20T00:44:16.619Z,94215.00
2022-08-20T00:46:47.248Z,94212.00
2022-08-20T00:49:25.744Z,94221.00
2022-08-20T00:52:17.153Z,94225.00
2022-08-20T00:54:50.810Z,94219.00
2022-08-20T00:57:53.265Z,94222.00
2022-08-20T01:00:49.934Z,94224.00
2022-08-20T01:03:20.497Z,94217.00
2022-08-20T01:05:50.848Z,94218.00
2022-08-20T01:08:21.722Z,94217.00
2022-08-20T01:10:50.515Z,94215.00
2022-08-20T01:13:24.205Z,94214.00
2022-08-20T01:15:54.951Z,94218.00
2022-08-20T01:18:26.605Z,94216.00
2022-08-20T01:20:59.305Z,94222.00
2022-08-20T01:23:44.986Z,94227.00
2022-08-20T01:26:19.181Z,94226.00
2022-08-20T01:28:54.955Z,94240.00
2022-08-20T01:31:28.538Z,94241.00
2022-08-20T01:33:57.974Z,94239.00
2022-08-20T01:36:31.442Z,94244.00
2022-08-20T01:38:59.989Z,94249.00
2022-08-20T01:42:09.593Z,94242.00
2022-08-20T01:44:43.258Z,94236.00
2022-08-20T01:47:29.222Z,94246.00
2022-08-20T01:50:29.224Z,94242.00
2022-08-20T01:53:09.254Z,94254.00
2022-08-20T01:55:38.157Z,94247.00
2022-08-20T01:58:05.492Z,94250.00
2022-08-20T02:00:36.321Z,94254.00
2022-08-20T02:03:07.703Z,94248.00
2022-08-20T02:05:35.912Z,94239.00
2022-08-20T02:08:04.732Z,94247.00
2022-08-20T02:10:34.590Z,94250.00
2022-08-20T02:13:01.851Z,94254.00
2022-08-20T02:15:37.458Z,94248.00
2022-08-20T02:18:14.847Z,94253.00
2022-08-20T02:20:43.663Z,94262.00
2022-08-20T02:23:12.318Z,94256.00
2022-08-20T02:25:44.577Z,94250.00
2022-08-20T02:28:19.692Z,94250.00
2022-08-20T02:30:55.285Z,94246.00
2022-08-20T02:33:25.487Z,94234.00
2022-08-20T02:35:56.664Z,94239.00
2022-08-20T02:38:24.199Z,94240.00
2022-08-20T02:40:51.960Z,94247.00
2022-08-20T02:43:20.137Z,94241.00
2022-08-20T02:45:49.672Z,94242.00
2022-08-20T02:48:22.867Z,94244.00
2022-08-20T02:51:00.952Z,94256.00
2022-08-20T02:53:35.701Z,94252.00
2022-08-20T02:56:06.672Z,94256.00
2022-08-20T02:58:38.628Z,94254.00
2022-08-20T03:01:12.598Z,94256.00
2022-08-20T03:03:43.443Z,94248.00
2022-08-20T03:06:15.076Z,94246.00
2022-08-20T03:08:44.862Z,94251.00
2022-08-20T03:11:14.071Z,94253.00
2022-08-20T03:13:41.039Z,94234.00
2022-08-20T03:16:08.847Z,94248.00
2022-08-20T03:18:47.524Z,94238.00
2022-08-20T03:21:18.993Z,94239.00
2022-08-20T03:23:46.114Z,94246.00
2022-08-20T03:26:18.415Z,94238.00
2022-08-20T03:28:47.616Z,94254.00
2022-08-20T03:31:17.347Z,94251.00
2022-08-20T03:33:52.644Z,94243.00
2022-08-20T03:36:28.051Z,94239.00
2022-08-20T03:39:01.801Z,94235.00
2022-08-20T03:41:32.159Z,94226.00
2022-08-20T03:44:01.561Z,94229.00
2022-08-20T03:46:28.798Z,94235.00
2022-08-20T03:49:00.031Z,94226.00
2022-08-20T03:51:29.977Z,94233.00
2022-08-20T03:53:59.782Z,94221.00
2022-08-20T03:56:29.213Z,94224.00
2022-08-20T03:58:56.341Z,94221.00
2022-08-20T04:01:45.827Z,94230.00
2022-08-20T04:04:12.949Z,94225.00
2022-08-20T04:06:41.182Z,94214.00
2022-08-20T04:09:11.862Z,94216.00
2022-08-20T04:11:42.438Z,94229.00
2022-08-20T04:14:11.730Z,94219.00
2022-08-20T04:16:43.821Z,94224.00
2022-08-20T04:19:15.449Z,94219.00
2022-08-20T04:21:42.316Z,94220.00
2022-08-20T04:24:27.500Z,94223.00
2022-08-20T04:26:59.352Z,94226.00
2022-08-20T04:29:31.993Z,94228.00
2022-08-20T04:32:05.689Z,94224.00
2022-08-20T04:34:34.001Z,94226.00
2022-08-20T04:37:00.990Z,94233.00
2022-08-20T04:39:29.990Z,94238.00
2022-08-20T04:41:56.939Z,94243.00
2022-08-20T04:44:28.625Z,94255.00
2022-08-20T04:46:58.633Z,94259.00
2022-08-20T04:49:26.313Z,94251.00
2022-08-20T04:51:56.034Z,94255.00
2022-08-20T04:54:23.019Z,94256.00
2022-08-20T04:56:49.999Z,94246.00
2022-08-20T04:59:16.960Z,94251.00
2022-08-20T05:01:43.889Z,94256.00
2022-08-20T05:04:10.971Z,94256.00
2022-08-20T05:06:38.581Z,94238.00
2022-08-20T05:09:05.693Z,94258.00
2022-08-20T05:11:36.508Z,94271.00
2022-08-20T05:14:08.959Z,94273.00
2022-08-20T05:16:40.411Z,94277.00
2022-08-20T05:19:10.078Z,94274.00
2022-08-20T05:21:40.131Z,94272.00
2022-08-20T05:24:07.625Z,94280.00
2022-08-20T05:26:36.942Z,94275.00
2022-08-20T05:29:05.594Z,94281.00
2022-08-20T05:31:34.665Z,94280.00
2022-08-20T05:34:10.815Z,94275.00
2022-08-20T05:36:49.095Z,94282.00
2022-08-20T05:39:24.750Z,94277.00
2022-08-20T05:41:54.878Z,94289.00
2022-08-20T05:44:24.783Z,94288.00
2022-08-20T05:46:53.910Z,94286.00
2022-08-20T05:49:21.954Z,94283.00
2022-08-20T05:51:52.480Z,94283.00
2022-08-20T05:54:19.615Z,94278.00
2022-08-20T05:56:49.125Z,94282.00
2022-08-20T05:59:22.221Z,94288.00
2022-08-20T06:01:54.253Z,94279.00
2022-08-20T06:04:31.936Z,94276.00
2022-08-20T06:07:09.030Z,94275.00
2022-08-20T06:09:36.368Z,94281.00
2022-08-20T06:12:09.811Z,94273.00
2022-08-20T06:14:37.014Z,94274.00
2022-08-20T06:17:13.573Z,94284.00
2022-08-20T06:19:47.035Z,94280.00
2022-08-20T06:22:19.190Z,94284.00
2022-08-20T06:24:54.258Z,94283.00
2022-08-20T06:27:22.750Z,94277.00
2022-08-20T06:29:50.916Z,94290.00
2022-08-20T06:32:28.801Z,94283.00
2022-08-20T06:35:05.918Z,94274.00
2022-08-20T06:37:36.848Z,94284.00
2022-08-20T06:40:23.273Z,94287.00
2022-08-20T06:42:51.816Z,94277.00
2022-08-20T06:45:36.046Z,94272.00
2022-08-20T06:48:15.206Z,94283.00
2022-08-20T06:50:48.114Z,94284.00
2022-08-20T06:53:19.192Z,94286.00
2022-08-20T06:55:50.772Z,94283.00
2022-08-20T06:58:37.191Z,94277.00
2022-08-20T07:01:10.765Z,94276.00
2022-08-20T07:03:54.164Z,94279.00
2022-08-20T07:06:27.009Z,94281.00
2022-08-20T07:08:55.872Z,94290.00
2022-08-20T07:11:27.844Z,94283.00
2022-08-20T07:13:59.335Z,94279.00
2022-08-20T07:16:30.051Z,94265.00
2022-08-20T07:18:58.231Z,94272.00
2022-08-20T07:21:32.888Z,94266.00
2022-08-20T07:23:59.933Z,94279.00
2022-08-20T07:26:29.474Z,94275.00
2022-08-20T07:28:56.858Z,94269.00
2022-08-20T07:31:42.424Z,94278.00
2022-08-20T07:34:11.341Z,94272.00
2022-08-20T07:36:40.734Z,94273.00
2022-08-20T07:39:10.103Z,94281.00
2022-08-20T07:41:37.052Z,94280.00
2022-08-20T07:44:04.745Z,94288.00
2022-08-20T07:46:32.081Z,94288.00
2022-08-20T07:48:59.628Z,94290.00
2022-08-20T07:51:29.552Z,94294.00
2022-08-20T07:54:00.032Z,94291.00
2022-08-20T07:56:27.922Z,94296.00
2022-08-20T07:59:02.285Z,94295.00
2022-08-20T08:01:31.644Z,94297.00
2022-08-20T08:04:00.499Z,94296.00
2022-08-20T08:06:31.370Z,94291.00
2022-08-20T08:09:03.485Z,94302.00
2022-08-20T08:11:33.755Z,94301.00
2022-08-20T08:14:04.232Z,94297.00
2022-08-20T08:16:32.361Z,94298.00
2022-08-20T08:19:01.289Z,94297.00
2022-08-20T08:21:30.035Z,94297.00
2022-08-20T08:23:59.112Z,94299.00
2022-08-20T08:26:28.805Z,94294.00
2022-08-20T08:28:57.353Z,94286.00
2022-08-20T08:31:27.140Z,94294.00
2022-08-20T08:33:55.573Z,94289.00
2022-08-20T08:36:22.600Z,94290.00
2022-08-20T08:38:54.655Z,94293.00
2022-08-20T08:41:49.727Z,94286.00
2022-08-20T08:44:23.159Z,94298.00
2022-08-20T08:46:57.131Z,94283.00
2022-08-20T08:49:30.235Z,94287.00
2022-08-20T08:52:20.224Z,94291.00
2022-08-20T08:54:55.955Z,94299.00
2022-08-20T08:57:29.135Z,94301.00
2022-08-20T09:00:14.831Z,94297.00
2022-08-20T09:03:07.540Z,94296.00
2022-08-20T09:05:53.042Z,94295.00
2022-08-20T09:08:46.677Z,94299.00
2022-08-20T09:11:15.991Z,94295.00
2022-08-20T09:13:44.350Z,94295.00
2022-08-20T09:16:15.466Z,94296.00
2022-08-20T09:18:42.921Z,94301.00
2022-08-20T09:21:10.779Z,94300.00
2022-08-20T09:23:38.748Z,94294.00
2022-08-20T09:26:05.979Z,94300.00
2022-08-20T09:28:35.133Z,94294.00
2022-08-20T09:31:09.012Z,94314.00
2022-08-20T09:33:36.943Z,94311.00
2022-08-20T09:36:29.084Z,94306.00
2022-08-20T09:38:56.584Z,94303.00
2022-08-20T09:41:23.556Z,94312.00
2022-08-20T09:43:50.480Z,94309.00
2022-08-20T09:46:17.437Z,94313.00
2022-08-20T09:48:44.435Z,94310.00
2022-08-20T09:51:11.501Z,94314.00
2022-08-20T09:53:40.973Z,94314.00
2022-08-20T09:56:09.195Z,94313.00
2022-08-20T09:58:52.870Z,94307.00
2022-08-20T10:01:22.133Z,94313.00
2022-08-20T10:03:52.710Z,94309.00
2022-08-20T10:06:20.545Z,94308.00
2022-08-20T10:08:49.269Z,94307.00
2022-08-20T10:11:18.066Z,94319.00
2022-08-20T10:13:45.710Z,94308.00
2022-08-20T10:16:13.220Z,94311.00
2022-08-20T10:18:42.418Z,94312.00
2022-08-20T10:21:14.142Z,94306.00
2022-08-20T10:23:43.996Z,94307.00
2022-08-20T10:26:12.590Z,94311.00
2022-08-20T10:28:39.958Z,94309.00
2022-08-20T10:31:11.987Z,94315.00
2022-08-20T10:33:43.055Z,94305.00
2022-08-20T10:36:17.807Z,94304.00
2022-08-20T10:38:44.953Z,94305.00
2022-08-20T10:41:12.084Z,94303.00
2022-08-20T10:43:39.093Z,94299.00
2022-08-20T10:46:09.139Z,94297.00
2022-08-20T10:48:41.170Z,94297.00
2022-08-20T10:51:10.658Z,94302.00
2022-08-20T10:53:40.882Z,94304.00
2022-08-20T10:56:07.871Z,94304.00
2022-08-20T10:58:39.600Z,94300.00
2022-08-20T11:01:07.600Z,94305.00
2022-08-20T11:03:35.147Z,94303.00
2022-08-20T11:06:02.610Z,94295.00
2022-08-20T11:08:34.309Z,94302.00
2022-08-20T11:11:04.513Z,94298.00
2022-08-20T11:13:32.893Z,94299.00
2022-08-20T11:16:00.860Z,94299.00
2022-08-20T11:18:31.238Z,94290.00
2022-08-20T11:21:02.190Z,94289.00
2022-08-20T11:23:31.352Z,94280.00
2022-08-20T11:26:00.470Z,94277.00
2022-08-20T11:28:32.247Z,94275.00
2022-08-20T11:31:01.693Z,94269.00
2022-08-20T11:33:28.656Z,94271.00
2022-08-20T11:35:58.075Z,94279.00
2022-08-20T11:38:25.496Z,94295.00
2022-08-20T11:40:52.470Z,94299.00
2022-08-20T11:43:19.401Z,94296.00
2022-08-20T11:45:51.329Z,94304.00
2022-08-20T11:48:18.988Z,94305.00
2022-08-20T11:50:49.401Z,94311.00
2022-08-20T11:53:18.816Z,94316.00
2022-08-20T11:55:47.325Z,94309.00
2022-08-20T11:58:17.747Z,94303.00
2022-08-20T12:00:44.863Z,94311.00
2022-08-20T12:03:19.373Z,94322.00
2022-08-20T12:05:48.839Z,94326.00
2022-08-20T12:08:26.772Z,94333.00
2022-08-20T12:10:59.379Z,94328.00
2022-08-20T12:13:47.949Z,94329.00
2022-08-20T12:16:18.043Z,94325.00
2022-08-20T12:18:48.986Z,94337.00
2022-08-20T12:21:16.791Z,94332.00
2022-08-20T12:23:44.147Z,94329.00
2022-08-20T12:26:13.650Z,94321.00
2022-08-20T12:28:40.724Z,94310.00
2022-08-20T12:31:09.928Z,94321.00
2022-08-20T12:33:36.889Z,94323.00
2022-08-20T12:36:04.883Z,94323.00
2022-08-20T12:38:31.966Z,94326.00
2022-08-20T12:40:58.959Z,94314.00
2022-08-20T12:43:25.930Z,94317.00
2022-08-20T12:45:53.026Z,94325.00
2022-08-20T12:48:20.965Z,94317.00
2022-08-20T12:50:53.546Z,94316.00
2022-08-20T12:53:25.098Z,94315.00
2022-08-20T12:55:54.994Z,94317.00
2022-08-20T12:58:24.665Z,94306.00
2022-08-20T13:00:54.065Z,94316.00
2022-08-20T13:03:21.113Z,94319.00
2022-08-20T13:05:53.018Z,94324.00
2022-08-20T13:08:22.249Z,94315.00
2022-08-20T13:10:49.189Z,94310.00
2022-08-20T13:13:21.186Z,94318.00
2022-08-20T13:15:50.795Z,94315.00
2022-08-20T13:18:18.843Z,94313.00
2022-08-20T13:20:46.000Z,94305.00
2022-08-20T13:23:12.972Z,94310.00
2022-08-20T13:25:42.408Z,94302.00
2022-08-20T13:28:09.605Z,94300.00
2022-08-20T13:30:40.995Z,94298.00
2022-08-20T13:33:08.097Z,94293.00
2022-08-20T13:35:37.317Z,94287.00
2022-08-20T13:38:04.607Z,94282.00
2022-08-20T13:40:31.555Z,94288.00
2022-08-20T13:43:06.723Z,94287.00
2022-08-20T13:45:35.792Z,94285.00
2022-08-20T13:48:03.501Z,94290.00
2022-08-20T13:50:34.286Z,94291.00
2022-08-20T13:53:08.431Z,94286.00
2022-08-20T13:55:39.947Z,94287.00
2022-08-20T13:58:10.163Z,94274.00
2022-08-20T14:00:39.640Z,94289.00
2022-08-20T14:03:11.587Z,94282.00
2022-08-20T14:05:39.337Z,94296.00
2022-08-20T14:08:20.781Z,94296.00
2022-08-20T14:10:51.350Z,94291.00
2022-08-20T14:13:22.205Z,94304.00
2022-08-20T14:15:51.968Z,94306.00
2022-08-20T14:18:21.746Z,94318.00
2022-08-20T14:20:49.186Z,94320.00
2022-08-20T14:23:16.619Z,94311.00
2022-08-20T14:25:47.828Z,94311.00
2022-08-20T14:28:21.974Z,94317.00
2022-08-20T14:30:52.668Z,94318.00
2022-08-20T14:33:21.438Z,94321.00
2022-08-20T14:35:48.412Z,94309.00
2022-08-20T14:38:15.353Z,94310.00
2022-08-20T14:40:42.372Z,94303.00
2022-08-20T14:43:09.271Z,94310.00
2022-08-20T14:45:36.172Z,94307.00
2022-08-20T14:48:10.788Z,94290.00
2022-08-20T14:50:38.329Z,94295.00
2022-08-20T14:53:08.902Z,94298.00
2022-08-20T14:55:39.193Z,94301.00
2022-08-20T14:58:15.204Z,94297.00
2022-08-20T15:00:43.946Z,94294.00
2022-08-20T15:03:11.177Z,94296.00
2022-08-20T15:05:42.999Z,94289.00
2022-08-20T15:08:13.288Z,94297.00
2022-08-20T15:10:43.539Z,94286.00
2022-08-20T15:13:13.000Z,94297.00
2022-08-20T15:15:43.450Z,94307.00
2022-08-20T15:18:13.101Z,94298.00
2022-08-20T15:20:42.168Z,94304.00
2022-08-20T15:23:12.119Z,94299.00
2022-08-20T15:25:39.045Z,94296.00
2022-08-20T15:28:09.118Z,94303.00
2022-08-20T15:30:41.625Z,94307.00
2022-08-20T15:33:12.201Z,94307.00
2022-08-20T15:35:39.262Z,94307.00
2022-08-20T15:38:08.632Z,94300.00
2022-08-20T15:40:40.557Z,94302.00
2022-08-20T15:43:10.058Z,94304.00
2022-08-20T15:45:39.575Z,94295.00
2022-08-20T15:48:15.445Z,94297.00
2022-08-20T15:50:48.489Z,94290.00
2022-08-20T15:53:54.836Z,94299.00
2022-08-20T15:56:46.412Z,94297.00
2022-08-20T15:59:46.995Z,94300.00
2022-08-20T16:02:38.781Z,94303.00
2022-08-20T16:05:41.258Z,94302.00
2022-08-20T16:08:18.624Z,94307.00
2022-08-20T16:11:40.092Z,94301.00
2022-08-20T16:14:23.871Z,94306.00
2022-08-20T16:17:14.118Z,94313.00
2022-08-20T16:20:17.859Z,94312.00
2022-08-20T16:22:48.995Z,94308.00
2022-08-20T16:25:23.827Z,94313.00
2022-08-20T16:28:17.414Z,94311.00
2022-08-20T16:30:52.408Z,94310.00
2022-08-20T16:33:37.668Z,94318.00
2022-08-20T16:36:13.362Z,94314.00
2022-08-20T16:39:02.585Z,94312.00
2022-08-20T16:41:42.673Z,94310.00
2022-08-20T16:44:34.994Z,94311.00
2022-08-20T16:47:27.020Z,94313.00
2022-08-20T16:50:12.901Z,94312.00
2022-08-20T16:52:45.379Z,94315.00
2022-08-20T16:55:13.958Z,94315.00
2022-08-20T16:57:41.211Z,94321.00
2022-08-20T17:00:30.378Z,94317.00
2022-08-20T17:03:07.265Z,94315.00
2022-08-20T17:05:47.780Z,94313.00
2022-08-20T17:08:47.593Z,94307.00
2022-08-20T17:11:31.934Z,94314.00
2022-08-20T17:14:19.340Z,94313.00
2022-08-20T17:16:55.074Z,94307.00
2022-08-20T17:19:33.884Z,94279.00
2022-08-20T17:22:16.163Z,94305.00
2022-08-20T17:24:43.323Z,94306.00
2022-08-20T17:27:28.150Z,94310.00
2022-08-20T17:30:19.822Z,94310.00
2022-08-20T17:33:01.289Z,94316.00
2022-08-20T17:35:43.018Z,94311.00
2022-08-20T17:38:38.140Z,94317.00
2022-08-20T17:41:17.287Z,94314.00
2022-08-20T17:43:45.124Z,94312.00
2022-08-20T17:46:17.910Z,94314.00
2022-08-20T17:48:49.485Z,94311.00
2022-08-20T17:51:27.252Z,94316.00
2022-08-20T17:54:21.762Z,94317.00
2022-08-20T17:56:55.790Z,94325.00
2022-08-20T17:59:36.356Z,94314.00
2022-08-20T18:02:22.801Z,94317.00
2022-08-20T18:04:55.399Z,94315.00
2022-08-20T18:07:32.061Z,94314.00
2022-08-20T18:10:14.534Z,94314.00
2022-08-20T18:12:44.039Z,94323.00
2022-08-20T18:15:26.250Z,94331.00
2022-08-20T18:18:17.393Z,94336.00
2022-08-20T18:21:16.032Z,94327.00
2022-08-20T18:24:13.253Z,94334.00
2022-08-20T18:27:09.012Z,94344.00
2022-08-20T18:29:41.993Z,94343.00
2022-08-20T18:32:37.620Z,94349.00
2022-08-20T18:35:33.255Z,94354.00
2022-08-20T18:38:22.087Z,94350.00
2022-08-20T18:40:55.096Z,94352.00
2022-08-20T18:43:31.390Z,94358.00
2022-08-20T18:46:21.274Z,94353.00
2022-08-20T18:49:05.674Z,94359.00
2022-08-20T18:51:48.158Z,94340.00
2022-08-20T18:54:32.377Z,94362.00
2022-08-20T18:57:26.881Z,94355.00
2022-08-20T19:00:14.419Z,94365.00
2022-08-20T19:03:08.596Z,94362.00
2022-08-20T19:05:56.627Z,94364.00
2022-08-20T19:08:42.857Z,94369.00
2022-08-20T19:12:06.415Z,94368.00
2022-08-20T19:14:56.976Z,94356.00
2022-08-20T19:17:45.523Z,94373.00
2022-08-20T19:20:23.732Z,94374.00
2022-08-20T19:22:53.689Z,94374.00
2022-08-20T19:25:30.926Z,94372.00
2022-08-20T19:28:21.973Z,94379.00
2022-08-20T19:30:49.414Z,94376.00
2022-08-20T19:33:31.018Z,94381.00
2022-08-20T19:36:17.660Z,94386.00
2022-08-20T19:38:57.964Z,94392.00
2022-08-20T19:41:36.953Z,94389.00
2022-08-20T19:44:04.073Z,94387.00
2022-08-20T19:46:39.561Z,94390.00
2022-08-20T19:49:27.861Z,94387.00
2022-08-20T19:52:49.015Z,94390.00
2022-08-20T19:55:30.010Z,94395.00
2022-08-20T19:58:25.452Z,94390.00
2022-08-20T20:00:55.188Z,94391.00
2022-08-20T20:03:28.233Z,94385.00
2022-08-20T20:06:16.070Z,94388.00
2022-08-20T20:08:58.768Z,94379.00
2022-08-20T20:11:36.901Z,94388.00
2022-08-20T20:14:11.562Z,94389.00
2022-08-20T20:16:40.069Z,94383.00
2022-08-20T20:19:26.351Z,94387.00
2022-08-20T20:22:20.181Z,94391.00
2022-08-20T20:25:23.636Z,94397.00
2022-08-20T20:28:11.540Z,94403.00
2022-08-20T20:30:40.505Z,94402.00
2022-08-20T20:33:23.907Z,94408.00
2022-08-20T20:36:08.425Z,94393.00
2022-08-20T20:38:39.309Z,94395.00
2022-08-20T20:41:19.193Z,94393.00
2022-08-20T20:43:49.073Z,94400.00
2022-08-20T20:46:23.993Z,94398.00
2022-08-20T20:48:59.153Z,94390.00
2022-08-20T20:51:34.150Z,94389.00
2022-08-20T20:54:24.737Z,94385.00
2022-08-20T20:57:06.913Z,94384.00
2022-08-20T20:59:36.151Z,94384.00
2022-08-20T21:02:03.941Z,94385.00
2022-08-20T21:04:30.878Z,94385.00
2022-08-20T21:07:09.897Z,94387.00
2022-08-20T21:09:41.821Z,94389.00
2022-08-20T21:12:12.087Z,94384.00
2022-08-20T21:14:43.746Z,94386.00
2022-08-20T21:17:21.409Z,94390.00
2022-08-20T21:19:51.046Z,94384.00
2022-08-20T21:22:19.891Z,94385.00
2022-08-20T21:24:51.403Z,94387.00
2022-08-20T21:27:25.562Z,94384.00
2022-08-20T21:29:55.303Z,94383.00
2022-08-20T21:32:22.325Z,94382.00
2022-08-20T21:34:50.333Z,94389.00
2022-08-20T21:37:20.124Z,94388.00
2022-08-20T21:39:47.171Z,94381.00
2022-08-20T21:42:28.235Z,94379.00
2022-08-20T21:44:57.633Z,94392.00
2022-08-20T21:47:24.853Z,94398.00
2022-08-20T21:49:52.035Z,94392.00
2022-08-20T21:52:21.474Z,94392.00
2022-08-20T21:54:48.445Z,94390.00
2022-08-20T21:57:37.530Z,94394.00
2022-08-20T22:00:38.350Z,94387.00
2022-08-20T22:03:07.693Z,94392.00
2022-08-20T22:05:34.713Z,94388.00
2022-08-20T22:08:01.785Z,94395.00
2022-08-20T22:10:28.731Z,94392.00
2022-08-20T22:12:58.503Z,94386.00
2022-08-20T22:15:25.569Z,94379.00
2022-08-20T22:17:52.632Z,94372.00
2022-08-20T22:20:22.405Z,94383.00
2022-08-20T22:22:49.383Z,94379.00
2022-08-20T22:25:18.782Z,94377.00
2022-08-20T22:27:45.922Z,94385.00
2022-08-20T22:30:17.813Z,94381.00
2022-08-20T22:32:52.040Z,94379.00
2022-08-20T22:35:20.002Z,94378.00
2022-08-20T22:37:47.043Z,94379.00
2022-08-20T22:40:14.007Z,94376.00
2022-08-20T22:42:43.652Z,94378.00
2022-08-20T22:45:14.909Z,94377.00
2022-08-20T22:47:42.689Z,94385.00
2022-08-20T22:50:18.285Z,94386.00
2022-08-20T22:52:45.420Z,94383.00
2022-08-20T22:55:14.889Z,94383.00
2022-08-20T22:57:41.844Z,94378.00
2022-08-20T23:00:13.777Z,94374.00
2022-08-20T23:02:53.217Z,94376.00
2022-08-20T23:05:23.783Z,94378.00
2022-08-20T23:07:58.037Z,94380.00
2022-08-20T23:10:32.568Z,94381.00
2022-08-20T23:12:59.907Z,94374.00
2022-08-20T23:15:28.473Z,94380.00
2022-08-20T23:18:01.404Z,94373.00
2022-08-20T23:20:31.375Z,94377.00
2022-08-20T23:22:58.631Z,94378.00
2022-08-20T23:25:28.503Z,94376.00
2022-08-20T23:28:04.174Z,94380.00
2022-08-20T23:30:32.128Z,94369.00
2022-08-20T23:32:59.340Z,94374.00
2022-08-20T23:35:33.174Z,94370.00
2022-08-20T23:38:02.384Z,94370.00
2022-08-20T23:40:32.347Z,94364.00
2022-08-20T23:43:00.048Z,94372.00
2022-08-20T23:45:29.417Z,94358.00
2022-08-20T23:47:56.724Z,94353.00
2022-08-20T23:50:33.243Z,94361.00
2022-08-20T23:53:03.038Z,94362.00
2022-08-20T23:55:30.258Z,94360.00
2022-08-20T23:57:57.302Z,94357.00
